Time;durP1;ratioP1;P1;durP2;ratioP2;P2;SDS_P1;SDS_P2;PMS_P1;PMS_P2;Temp;Humidity;BMP_temperature;BMP_pressure;BME280_temperature;BME280_humidity;BME280_pressure;Samples;Min_cycle;Max_cycle;Signal;HPM_P1;HPM_P2
2023/05/30 00:01:25;;;;;;;7.60;1.95;;;11.80;99.70;;;;;;5082478;28;20737;-42
2023/05/30 00:03:51;;;;;;;10.52;2.50;;;11.80;99.70;;;;;;5081643;28;20165;-39
2023/05/30 00:06:17;;;;;;;11.73;2.58;;;11.70;99.90;;;;;;5081719;28;20070;-43
2023/05/30 00:08:46;;;;;;;7.20;1.83;;;11.70;99.90;;;;;;5082508;28;20107;-44
2023/05/30 00:11:18;;;;;;;13.80;2.58;;;11.60;99.90;;;;;;5082322;28;20028;-42
2023/05/30 00:13:43;;;;;;;4.93;1.80;;;11.60;99.90;;;;;;5082432;28;20268;-41
2023/05/30 00:16:14;;;;;;;7.90;2.30;;;11.60;99.90;;;;;;5082273;28;20506;-42
2023/05/30 00:18:40;;;;;;;12.88;2.67;;;11.60;99.90;;;;;;5082586;28;20024;-40
2023/05/30 00:21:07;;;;;;;8.40;2.13;;;11.60;99.90;;;;;;5082093;28;20470;-41
2023/05/30 00:23:35;;;;;;;8.68;2.10;;;11.60;99.90;;;;;;5081535;28;20031;-41
2023/05/30 00:26:01;;;;;;;8.00;2.05;;;11.50;99.90;;;;;;5083190;28;20091;-41
2023/05/30 00:28:27;;;;;;;5.03;2.00;;;11.50;99.90;;;;;;5082024;28;20036;-41
2023/05/30 00:30:53;;;;;;;8.45;2.47;;;11.50;99.90;;;;;;5082347;28;20107;-42
2023/05/30 00:33:23;;;;;;;9.48;2.13;;;11.50;99.90;;;;;;5082161;28;20077;-42
2023/05/30 00:35:48;;;;;;;8.65;2.08;;;11.40;99.90;;;;;;5081948;28;20043;-41
2023/05/30 00:38:15;;;;;;;6.38;1.85;;;11.40;99.90;;;;;;5081590;28;20020;-41
2023/05/30 00:40:40;;;;;;;5.93;1.83;;;11.40;99.90;;;;;;5082234;28;20104;-42
2023/05/30 00:43:06;;;;;;;8.00;2.28;;;11.40;99.90;;;;;;5081801;28;20475;-41
2023/05/30 00:45:31;;;;;;;8.43;1.98;;;11.40;99.90;;;;;;5060844;28;20093;-41
2023/05/30 00:47:58;;;;;;;8.63;1.90;;;11.40;99.90;;;;;;5075868;28;20024;-42
2023/05/30 00:50:26;;;;;;;8.90;2.30;;;11.40;99.90;;;;;;5081194;28;20028;-41
2023/05/30 00:52:53;;;;;;;8.55;2.60;;;11.40;99.90;;;;;;5080794;28;20042;-40
2023/05/30 00:55:18;;;;;;;8.65;1.90;;;11.40;99.90;;;;;;5081452;28;20036;-40
2023/05/30 00:57:46;;;;;;;10.00;2.28;;;11.40;99.90;;;;;;5080809;28;20044;-42
2023/05/30 01:00:13;;;;;;;6.63;2.03;;;11.40;99.90;;;;;;5060849;28;20064;-42
2023/05/30 01:02:40;;;;;;;7.30;2.72;;;11.40;99.90;;;;;;5067692;28;20677;-41
2023/05/30 01:05:06;;;;;;;8.57;2.20;;;11.30;99.90;;;;;;5081561;28;20030;-41
2023/05/30 01:07:33;;;;;;;6.55;2.30;;;11.30;99.90;;;;;;5080273;28;20012;-40
2023/05/30 01:09:59;;;;;;;6.05;2.10;;;11.30;99.90;;;;;;5081332;28;20119;-41
2023/05/30 01:12:41;;;;;;;8.35;2.47;;;11.20;99.90;;;;;;5080372;28;20020;-40
2023/05/30 01:15:18;;;;;;;5.97;2.35;;;11.20;99.90;;;;;;5081500;28;20055;-42
2023/05/30 01:18:04;;;;;;;7.03;2.10;;;11.20;99.90;;;;;;5080357;28;20099;-37
2023/05/30 01:20:35;;;;;;;6.45;2.60;;;11.20;99.90;;;;;;5070209;28;20042;-42
2023/05/30 01:23:30;;;;;;;6.47;1.80;;;11.20;99.90;;;;;;5081275;28;20059;-42
2023/05/30 01:26:06;;;;;;;6.60;2.38;;;11.20;99.90;;;;;;5073544;28;20712;-41
2023/05/30 01:28:33;;;;;;;8.18;2.17;;;11.20;99.90;;;;;;5080181;28;20170;-41
2023/05/30 01:31:00;;;;;;;7.45;2.63;;;11.20;99.90;;;;;;5080813;28;20031;-43
2023/05/30 01:33:27;;;;;;;7.72;2.63;;;11.20;99.90;;;;;;5080188;28;20829;-41
2023/05/30 01:35:53;;;;;;;5.50;2.13;;;11.20;99.90;;;;;;5080324;28;20087;-41
2023/05/30 01:38:19;;;;;;;9.25;2.55;;;11.20;99.90;;;;;;5080426;28;20842;-41
2023/05/30 01:40:50;;;;;;;5.50;2.17;;;11.20;99.90;;;;;;5080488;28;20031;-40
2023/05/30 01:43:18;;;;;;;9.15;2.30;;;11.30;99.90;;;;;;5081541;28;20024;-42
2023/05/30 01:46:13;;;;;;;7.45;2.65;;;11.30;99.90;;;;;;5080426;28;20077;-38
2023/05/30 01:49:00;;;;;;;10.13;2.30;;;11.30;99.90;;;;;;5080350;28;20031;-41
2023/05/30 01:51:33;;;;;;;7.00;2.60;;;11.30;99.90;;;;;;5069374;28;20073;-43
2023/05/30 01:54:02;;;;;;;9.93;2.15;;;11.30;99.90;;;;;;5080430;28;20073;-41
2023/05/30 01:56:28;;;;;;;10.07;2.67;;;11.30;99.90;;;;;;5079231;28;20451;-40
2023/05/30 01:58:55;;;;;;;9.05;2.47;;;11.30;99.90;;;;;;5080481;28;20020;-41
2023/05/30 02:01:25;;;;;;;5.80;1.70;;;11.30;99.90;;;;;;5077605;28;20057;-41
2023/05/30 02:03:52;;;;;;;6.15;2.25;;;11.20;99.90;;;;;;5080058;28;20024;-41
2023/05/30 02:06:20;;;;;;;7.20;2.05;;;11.20;99.90;;;;;;5080876;28;20024;-40
2023/05/30 02:08:45;;;;;;;7.68;2.20;;;11.30;99.90;;;;;;5079520;28;20020;-41
2023/05/30 02:11:11;;;;;;;8.75;2.42;;;11.30;99.90;;;;;;5080535;28;20039;-40
2023/05/30 02:13:37;;;;;;;10.38;2.25;;;11.30;99.90;;;;;;5080593;28;20023;-41
2023/05/30 02:16:02;;;;;;;9.60;2.45;;;11.30;99.90;;;;;;5079592;28;20074;-42
2023/05/30 02:18:28;;;;;;;9.65;2.72;;;11.30;99.90;;;;;;5080768;28;20490;-42
2023/05/30 02:20:54;;;;;;;8.30;2.33;;;11.30;99.90;;;;;;5080472;28;20459;-41
2023/05/30 02:23:20;;;;;;;3.85;2.17;;;11.30;99.90;;;;;;5079269;28;20452;-40
2023/05/30 02:25:46;;;;;;;7.03;2.60;;;11.30;99.90;;;;;;5079674;28;20026;-41
2023/05/30 02:28:11;;;;;;;12.18;2.63;;;11.30;99.90;;;;;;5080614;28;20020;-42
2023/05/30 02:30:37;;;;;;;7.18;2.35;;;11.30;99.90;;;;;;5081622;28;20035;-41
2023/05/30 02:33:03;;;;;;;6.43;2.20;;;11.40;99.90;;;;;;5084690;28;20096;-42
2023/05/30 02:35:28;;;;;;;11.30;2.60;;;11.40;99.90;;;;;;5084096;28;20123;-42
2023/05/30 02:37:54;;;;;;;10.05;2.42;;;11.40;99.90;;;;;;5083261;28;20039;-42
2023/05/30 02:40:20;;;;;;;8.00;2.50;;;11.40;99.90;;;;;;5084932;28;20493;-40
2023/05/30 02:42:45;;;;;;;6.70;2.50;;;11.40;99.90;;;;;;5084707;28;20110;-41
2023/05/30 02:45:11;;;;;;;8.07;2.45;;;11.40;99.90;;;;;;5083907;28;20036;-40
2023/05/30 02:47:36;;;;;;;9.93;2.67;;;11.40;99.90;;;;;;5083921;28;20559;-42
2023/05/30 02:50:02;;;;;;;7.53;2.22;;;11.50;99.90;;;;;;5085325;28;20020;-41
2023/05/30 02:52:28;;;;;;;10.18;3.10;;;11.50;99.90;;;;;;5083060;28;20028;-41
2023/05/30 02:54:54;;;;;;;7.30;2.40;;;11.50;99.90;;;;;;5084259;28;20032;-41
2023/05/30 02:57:21;;;;;;;8.65;2.20;;;11.50;99.90;;;;;;5084032;28;20097;-41
2023/05/30 02:59:46;;;;;;;5.22;2.10;;;11.50;99.90;;;;;;5083335;28;20028;-40
2023/05/30 03:02:12;;;;;;;9.15;2.20;;;11.50;99.90;;;;;;5084302;28;20564;-42
2023/05/30 03:04:38;;;;;;;7.22;2.30;;;11.50;99.90;;;;;;5084190;28;20581;-42
2023/05/30 03:07:07;;;;;;;6.97;2.50;;;11.50;99.90;;;;;;5083622;28;20020;-42
2023/05/30 03:09:34;;;;;;;8.75;2.67;;;11.40;99.90;;;;;;5083769;28;20796;-42
2023/05/30 03:12:03;;;;;;;9.13;2.70;;;11.40;99.90;;;;;;5083276;28;20034;-41
2023/05/30 03:14:29;;;;;;;6.25;2.00;;;11.40;99.90;;;;;;5083338;28;20051;-40
2023/05/30 03:16:54;;;;;;;6.55;2.22;;;11.50;99.90;;;;;;5084157;28;20020;-41
2023/05/30 03:19:20;;;;;;;6.55;2.08;;;11.50;99.90;;;;;;5083223;28;20028;-39
2023/05/30 03:21:45;;;;;;;8.98;2.42;;;11.50;99.90;;;;;;5083369;28;20027;-41
2023/05/30 03:24:12;;;;;;;5.78;2.45;;;11.50;99.90;;;;;;5084264;28;20410;-41
2023/05/30 03:26:37;;;;;;;8.07;2.25;;;11.50;99.90;;;;;;5082661;28;20027;-41
2023/05/30 03:29:03;;;;;;;6.43;2.10;;;11.50;99.90;;;;;;5084015;28;20012;-41
2023/05/30 03:31:29;;;;;;;6.50;2.28;;;11.50;99.90;;;;;;5083865;28;20043;-43
2023/05/30 03:33:54;;;;;;;6.97;2.30;;;11.50;99.90;;;;;;5082882;28;20077;-42
2023/05/30 03:36:20;;;;;;;10.23;2.15;;;11.50;99.90;;;;;;5083123;28;20486;-41
2023/05/30 03:38:46;;;;;;;8.20;2.67;;;11.50;99.90;;;;;;5083370;28;20035;-40
2023/05/30 03:41:12;;;;;;;5.15;2.08;;;11.40;99.90;;;;;;5082252;28;20032;-42
2023/05/30 03:43:37;;;;;;;8.40;2.42;;;11.50;99.90;;;;;;5083001;28;20035;-41
2023/05/30 03:46:06;;;;;;;6.90;2.70;;;11.50;99.90;;;;;;5083506;28;20428;-42
2023/05/30 03:48:32;;;;;;;3.92;2.30;;;11.50;99.90;;;;;;5082320;28;20165;-41
2023/05/30 03:50:57;;;;;;;11.25;3.13;;;11.50;99.90;;;;;;5083350;28;20103;-42
2023/05/30 03:53:26;;;;;;;8.07;2.40;;;11.50;99.90;;;;;;5082660;28;20020;-41
2023/05/30 03:55:51;;;;;;;6.95;2.60;;;11.50;99.90;;;;;;5082664;28;20122;-41
2023/05/30 03:58:17;;;;;;;4.57;2.13;;;11.50;99.90;;;;;;5082666;28;20048;-40
2023/05/30 04:00:42;;;;;;;6.32;2.45;;;11.50;99.90;;;;;;5083172;28;20089;-43
2023/05/30 04:03:08;;;;;;;5.85;2.58;;;11.50;99.90;;;;;;5082375;28;20494;-41
2023/05/30 04:05:33;;;;;;;7.10;2.60;;;11.60;99.90;;;;;;5082630;28;20478;-40
2023/05/30 04:07:59;;;;;;;5.72;2.38;;;11.60;99.90;;;;;;5083418;28;20043;-42
2023/05/30 04:10:24;;;;;;;6.88;2.88;;;11.60;99.90;;;;;;5081487;28;20113;-42
2023/05/30 04:12:53;;;;;;;6.35;2.85;;;11.70;99.90;;;;;;5082538;28;20028;-42
2023/05/30 04:15:18;;;;;;;5.95;3.20;;;11.70;99.90;;;;;;5081495;28;20468;-41
2023/05/30 04:17:44;;;;;;;11.90;3.22;;;11.70;99.90;;;;;;5082558;28;20044;-41
2023/05/30 04:20:10;;;;;;;6.97;3.00;;;11.70;99.90;;;;;;5082335;28;20028;-42
2023/05/30 04:22:35;;;;;;;9.02;3.47;;;11.70;99.90;;;;;;5081322;28;20028;-41
2023/05/30 04:25:01;;;;;;;7.30;3.22;;;11.70;99.90;;;;;;5082077;28;20024;-42
2023/05/30 04:27:27;;;;;;;5.28;2.42;;;11.70;99.90;;;;;;5082259;28;20032;-42
2023/05/30 04:29:53;;;;;;;5.97;2.75;;;11.80;99.90;;;;;;5081928;28;20349;-42
2023/05/30 04:32:19;;;;;;;6.50;2.88;;;11.80;99.90;;;;;;5082831;28;20768;-41
2023/05/30 04:34:45;;;;;;;9.18;3.65;;;11.80;99.90;;;;;;5081376;28;20119;-40
2023/05/30 04:37:11;;;;;;;6.95;3.38;;;11.80;99.90;;;;;;5081542;28;20031;-43
2023/05/30 04:39:37;;;;;;;10.00;3.55;;;11.80;99.90;;;;;;5082381;28;20050;-42
2023/05/30 04:42:04;;;;;;;9.02;3.58;;;11.90;99.90;;;;;;5082291;28;20471;-42
2023/05/30 04:44:32;;;;;;;7.30;3.00;;;11.90;99.90;;;;;;5081766;28;20024;-42
2023/05/30 04:47:01;;;;;;;6.60;2.92;;;11.90;99.90;;;;;;5082657;28;20143;-42
2023/05/30 04:49:29;;;;;;;5.32;2.80;;;12.00;99.90;;;;;;5081995;28;20108;-42
2023/05/30 04:51:54;;;;;;;7.00;2.88;;;12.00;99.90;;;;;;5080416;28;20076;-42
2023/05/30 04:54:20;;;;;;;10.07;3.65;;;12.00;99.90;;;;;;5082202;28;20464;-42
2023/05/30 04:56:45;;;;;;;6.22;3.67;;;12.00;99.90;;;;;;5081627;28;20879;-42
2023/05/30 04:59:15;;;;;;;7.88;4.00;;;12.00;99.90;;;;;;5081468;28;20023;-41
2023/05/30 05:01:41;;;;;;;7.68;3.63;;;12.00;99.90;;;;;;5081306;28;20036;-41
2023/05/30 05:04:06;;;;;;;6.82;3.08;;;12.00;99.90;;;;;;5081613;28;20032;-38
2023/05/30 05:06:36;;;;;;;11.00;3.65;;;12.00;99.90;;;;;;5080562;28;20055;-41
2023/05/30 05:09:01;;;;;;;7.00;3.28;;;12.00;99.90;;;;;;5082228;28;20081;-41
2023/05/30 05:11:27;;;;;;;5.47;3.20;;;12.10;99.90;;;;;;5081303;28;20020;-43
2023/05/30 05:13:52;;;;;;;8.20;3.30;;;12.10;99.90;;;;;;5081397;28;20136;-40
2023/05/30 05:16:18;;;;;;;9.70;3.80;;;12.20;99.90;;;;;;5081542;28;20827;-41
2023/05/30 05:18:44;;;;;;;7.28;3.38;;;12.20;99.90;;;;;;5081006;28;20042;-42
2023/05/30 05:21:10;;;;;;;7.38;3.28;;;12.20;99.90;;;;;;5082158;28;20115;-41
2023/05/30 05:23:35;;;;;;;7.88;4.10;;;12.20;99.90;;;;;;5081567;28;20663;-40
2023/05/30 05:26:01;;;;;;;8.07;3.45;;;12.30;99.90;;;;;;5080666;28;20024;-41
2023/05/30 05:28:27;;;;;;;8.73;3.53;;;12.30;99.90;;;;;;5081160;28;20115;-41
2023/05/30 05:30:53;;;;;;;7.88;3.33;;;12.40;99.90;;;;;;5080942;28;20039;-40
2023/05/30 05:33:19;;;;;;;10.00;3.67;;;12.40;99.90;;;;;;5080351;28;20157;-43
2023/05/30 05:35:48;;;;;;;7.30;2.78;;;12.50;99.90;;;;;;5081485;28;20463;-41
2023/05/30 05:38:14;;;;;;;7.93;3.47;;;12.60;99.90;;;;;;5081615;28;20487;-42
2023/05/30 05:40:41;;;;;;;4.50;2.83;;;12.60;99.90;;;;;;5080784;28;20031;-42
2023/05/30 05:43:06;;;;;;;6.03;3.05;;;12.70;99.90;;;;;;5081016;28;20024;-40
2023/05/30 05:45:32;;;;;;;6.35;3.05;;;12.70;99.90;;;;;;5081089;28;20778;-42
2023/05/30 05:47:57;;;;;;;5.85;3.17;;;12.80;99.90;;;;;;5080156;28;20020;-42
2023/05/30 05:50:23;;;;;;;10.27;3.40;;;12.80;99.90;;;;;;5080215;28;20035;-40
2023/05/30 05:52:48;;;;;;;4.80;2.70;;;12.80;99.90;;;;;;5080304;28;20024;-41
2023/05/30 05:55:14;;;;;;;6.85;3.15;;;12.90;99.90;;;;;;5080194;28;20078;-43
2023/05/30 05:57:40;;;;;;;5.50;2.90;;;13.00;99.90;;;;;;5076284;28;20040;-41
2023/05/30 06:00:06;;;;;;;10.05;3.83;;;13.10;99.90;;;;;;5079702;28;20024;-42
2023/05/30 06:02:32;;;;;;;5.53;2.80;;;13.20;99.90;;;;;;5078656;28;20099;-42
2023/05/30 06:04:57;;;;;;;6.70;3.15;;;13.20;99.90;;;;;;5078593;28;20180;-42
2023/05/30 06:07:23;;;;;;;8.50;3.25;;;13.20;99.90;;;;;;5080535;28;20120;-42
2023/05/30 06:09:51;;;;;;;7.13;2.90;;;13.20;99.90;;;;;;5080028;28;20101;-40
2023/05/30 06:12:16;;;;;;;6.85;3.05;;;13.30;99.90;;;;;;5079886;28;20138;-42
2023/05/30 06:14:51;;;;;;;6.18;2.78;;;13.20;99.90;;;;;;5079916;28;20049;-41
2023/05/30 06:17:19;;;;;;;8.02;3.08;;;13.30;99.90;;;;;;5079314;28;20059;-41
2023/05/30 06:19:45;;;;;;;8.40;3.05;;;13.30;99.90;;;;;;5079387;28;20043;-39
2023/05/30 06:22:10;;;;;;;5.53;3.20;;;13.30;99.90;;;;;;5079794;28;20150;-41
2023/05/30 06:24:42;;;;;;;7.28;3.30;;;13.40;99.90;;;;;;5079043;28;20034;-41
2023/05/30 06:27:08;;;;;;;5.43;2.92;;;13.40;99.90;;;;;;5079717;28;20050;-42
2023/05/30 06:29:35;;;;;;;5.50;3.10;;;13.40;99.90;;;;;;5078714;28;20538;-39
2023/05/30 06:32:01;;;;;;;5.25;2.50;;;13.50;99.90;;;;;;5079885;28;20032;-41
2023/05/30 06:34:26;;;;;;;9.93;3.13;;;13.60;99.90;;;;;;5078784;28;20089;-40
2023/05/30 06:36:52;;;;;;;4.93;3.00;;;13.60;99.90;;;;;;5094224;28;20023;-39
2023/05/30 06:39:17;;;;;;;7.45;2.95;;;13.60;99.90;;;;;;5089620;28;20107;-42
2023/05/30 06:41:44;;;;;;;6.68;3.35;;;13.60;99.90;;;;;;5079920;28;20026;-41
2023/05/30 06:44:09;;;;;;;5.70;2.83;;;13.60;99.90;;;;;;5079426;28;20097;-42
2023/05/30 06:46:35;;;;;;;6.47;3.42;;;13.60;99.90;;;;;;5080048;28;20024;-43
2023/05/30 06:49:01;;;;;;;5.95;3.33;;;13.50;99.90;;;;;;5080396;28;20078;-42
2023/05/30 06:51:26;;;;;;;5.45;2.92;;;13.50;99.90;;;;;;5079304;28;20035;-38
2023/05/30 06:53:52;;;;;;;6.03;3.40;;;13.50;99.90;;;;;;5080631;28;20032;-41
2023/05/30 06:56:17;;;;;;;8.05;3.10;;;13.50;99.90;;;;;;5079011;28;20044;-41
2023/05/30 06:58:43;;;;;;;6.07;3.10;;;13.50;99.90;;;;;;5079708;28;20131;-41
2023/05/30 07:01:11;;;;;;;6.13;2.65;;;13.60;99.90;;;;;;5079765;28;20586;-41
2023/05/30 07:03:43;;;;;;;8.13;3.00;;;13.60;99.90;;;;;;5079953;28;20076;-43
2023/05/30 07:06:09;;;;;;;6.97;3.07;;;13.70;99.90;;;;;;5079374;28;20831;-42
2023/05/30 07:08:35;;;;;;;8.25;2.90;;;13.80;99.90;;;;;;5080018;28;20312;-41
2023/05/30 07:11:00;;;;;;;10.13;3.55;;;13.90;99.90;;;;;;5079597;28;20107;-40
2023/05/30 07:13:26;;;;;;;6.72;3.35;;;13.90;99.90;;;;;;5078869;28;20028;-41
2023/05/30 07:15:51;;;;;;;6.53;3.22;;;14.00;99.90;;;;;;5079462;28;20074;-42
2023/05/30 07:18:17;;;;;;;7.28;3.47;;;14.00;99.90;;;;;;5082417;28;20097;-42
2023/05/30 07:20:43;;;;;;;6.75;3.60;;;14.00;99.90;;;;;;5083213;28;20115;-40
2023/05/30 07:23:08;;;;;;;6.07;3.00;;;14.10;99.90;;;;;;5083326;28;20020;-42
2023/05/30 07:25:34;;;;;;;6.80;2.95;;;14.20;99.90;;;;;;5081716;28;20464;-42
2023/05/30 07:27:59;;;;;;;5.97;3.20;;;14.20;99.90;;;;;;5083188;28;20589;-42
2023/05/30 07:30:25;;;;;;;6.32;3.75;;;14.20;99.90;;;;;;5082684;28;20032;-42
2023/05/30 07:32:51;;;;;;;8.15;3.95;;;14.20;99.90;;;;;;5082666;28;20023;-42
2023/05/30 07:35:16;;;;;;;8.57;2.85;;;14.10;99.90;;;;;;5083169;28;20032;-42
2023/05/30 07:37:50;;;;;;;7.35;2.90;;;14.00;99.90;;;;;;5082836;28;20024;-43
2023/05/30 07:40:17;;;;;;;7.18;3.55;;;13.90;99.90;;;;;;5082430;28;20032;-42
2023/05/30 07:42:43;;;;;;;5.88;3.15;;;13.90;99.90;;;;;;5082400;28;20020;-42
2023/05/30 07:45:09;;;;;;;8.32;3.20;;;13.80;99.90;;;;;;5083172;28;20494;-42
2023/05/30 07:47:35;;;;;;;4.15;2.97;;;13.80;99.90;;;;;;5082079;28;20027;-40
2023/05/30 07:50:01;;;;;;;6.72;3.30;;;13.80;99.90;;;;;;5083610;28;20027;-41
2023/05/30 07:52:26;;;;;;;7.72;3.63;;;13.80;99.90;;;;;;5081993;28;20026;-43
2023/05/30 07:54:52;;;;;;;5.93;3.63;;;13.90;99.90;;;;;;5082301;28;20046;-43
2023/05/30 07:57:20;;;;;;;8.35;4.28;;;13.90;99.90;;;;;;5082867;28;20103;-42
2023/05/30 07:59:48;;;;;;;9.13;3.38;;;13.90;99.90;;;;;;5083067;28;20056;-43
2023/05/30 08:02:14;;;;;;;7.82;3.33;;;13.90;99.90;;;;;;5082389;28;20028;-42
2023/05/30 08:04:40;;;;;;;5.63;2.80;;;13.90;99.90;;;;;;5083137;28;20039;-42
2023/05/30 08:07:05;;;;;;;8.02;3.55;;;14.00;99.90;;;;;;5082750;28;20024;-41
2023/05/30 08:09:31;;;;;;;8.98;4.28;;;14.10;99.90;;;;;;5081931;28;20478;-41
2023/05/30 08:12:02;;;;;;;8.75;3.80;;;14.10;99.90;;;;;;5083113;28;20028;-42
2023/05/30 08:14:27;;;;;;;7.07;3.50;;;14.30;99.90;;;;;;5081392;28;20103;-42
2023/05/30 08:16:53;;;;;;;10.48;4.40;;;14.40;99.90;;;;;;5082608;28;20023;-43
2023/05/30 08:19:21;;;;;;;7.05;3.30;;;14.60;99.90;;;;;;5082211;28;20493;-42
2023/05/30 08:21:47;;;;;;;8.00;3.45;;;14.80;99.90;;;;;;5081721;28;20028;-41
2023/05/30 08:24:15;;;;;;;6.20;3.45;;;14.90;99.90;;;;;;5083004;28;20020;-41
2023/05/30 08:26:41;;;;;;;6.63;3.28;;;15.00;99.90;;;;;;5082579;28;20028;-41
2023/05/30 08:29:07;;;;;;;9.93;3.25;;;15.00;99.80;;;;;;5081439;28;20028;-40
2023/05/30 08:31:35;;;;;;;6.63;3.08;;;15.00;99.90;;;;;;5082424;28;20034;-41
2023/05/30 08:34:18;;;;;;;8.27;3.35;;;15.10;99.90;;;;;;5083380;28;20031;-43
2023/05/30 08:36:44;;;;;;;8.57;2.95;;;15.00;99.70;;;;;;5080521;28;20154;-42
2023/05/30 08:39:12;;;;;;;6.60;3.55;;;15.00;99.80;;;;;;5082067;28;20032;-42
2023/05/30 08:41:38;;;;;;;10.88;4.05;;;15.00;99.70;;;;;;5082539;28;20479;-43
2023/05/30 08:44:03;;;;;;;7.10;3.70;;;15.10;99.70;;;;;;5082149;28;20024;-41
2023/05/30 08:46:29;;;;;;;9.70;3.53;;;15.10;99.60;;;;;;5081945;28;20039;-42
2023/05/30 08:48:55;;;;;;;5.65;2.83;;;15.10;99.50;;;;;;5082203;28;20571;-42
2023/05/30 08:51:25;;;;;;;6.88;3.33;;;15.10;99.40;;;;;;5081737;28;20153;-41
2023/05/30 08:53:57;;;;;;;6.38;3.33;;;15.10;99.40;;;;;;5081604;28;20050;-43
2023/05/30 08:56:45;;;;;;;9.10;3.40;;;15.00;99.40;;;;;;5081897;28;20144;-42
2023/05/30 08:59:12;;;;;;;6.95;3.40;;;15.00;99.50;;;;;;5082184;28;20028;-42
2023/05/30 09:01:39;;;;;;;6.60;3.30;;;15.10;99.50;;;;;;5082033;28;20107;-42
2023/05/30 09:04:07;;;;;;;8.20;3.80;;;15.10;99.60;;;;;;5080540;28;20833;-42
2023/05/30 09:06:36;;;;;;;5.15;3.22;;;15.10;99.20;;;;;;5081990;28;20036;-42
2023/05/30 09:09:02;;;;;;;7.53;3.47;;;15.10;99.20;;;;;;5081691;28;20016;-43
2023/05/30 09:11:29;;;;;;;7.75;3.28;;;15.10;99.20;;;;;;5080866;28;20044;-42
2023/05/30 09:13:56;;;;;;;4.82;2.63;;;15.20;99.20;;;;;;5081429;28;20737;-43
2023/05/30 09:16:22;;;;;;;5.30;2.92;;;15.20;99.20;;;;;;5081402;28;20058;-43
2023/05/30 09:18:47;;;;;;;6.10;3.13;;;15.30;99.20;;;;;;5081349;28;20031;-41
2023/05/30 09:21:14;;;;;;;5.15;2.80;;;15.40;99.10;;;;;;5081528;28;20020;-42
2023/05/30 09:23:43;;;;;;;5.55;3.20;;;15.40;99.10;;;;;;5081233;28;20119;-41
2023/05/30 09:26:13;;;;;;;8.00;3.28;;;15.40;99.10;;;;;;5080760;28;20024;-42
2023/05/30 09:28:38;;;;;;;8.07;3.15;;;15.40;99.00;;;;;;5081399;28;20028;-41
2023/05/30 09:31:06;;;;;;;8.75;3.63;;;15.50;99.00;;;;;;5081322;28;20856;-42
2023/05/30 09:33:46;;;;;;;8.02;3.30;;;15.50;99.00;;;;;;5080469;28;20544;-42
2023/05/30 09:36:19;;;;;;;7.20;3.30;;;15.60;98.90;;;;;;5080940;28;20461;-42
2023/05/30 09:38:52;;;;;;;7.72;2.92;;;15.60;98.80;;;;;;5081009;28;20360;-43
2023/05/30 09:41:18;;;;;;;6.85;3.15;;;15.60;98.80;;;;;;5080627;28;20112;-42
2023/05/30 09:43:43;;;;;;;5.97;3.17;;;15.60;98.70;;;;;;5081386;28;20107;-42
2023/05/30 09:46:09;;;;;;;9.93;3.38;;;15.60;98.70;;;;;;5080766;28;20020;-42
2023/05/30 09:48:40;;;;;;;7.07;4.00;;;15.60;98.60;;;;;;5080438;28;20376;-40
2023/05/30 09:51:05;;;;;;;7.55;2.75;;;15.70;98.60;;;;;;5080695;28;20032;-42
2023/05/30 09:53:33;;;;;;;6.72;3.05;;;15.80;98.70;;;;;;5079871;28;20448;-41
2023/05/30 09:56:05;;;;;;;11.80;4.18;;;15.80;98.50;;;;;;5080344;28;20142;-41
2023/05/30 09:58:30;;;;;;;7.07;3.55;;;15.90;98.20;;;;;;5080344;28;20028;-39
2023/05/30 10:00:57;;;;;;;10.18;3.83;;;15.90;98.00;;;;;;5079702;28;20031;-43
2023/05/30 10:03:43;;;;;;;6.82;3.42;;;15.90;97.80;;;;;;5080027;28;20082;-42
2023/05/30 10:06:15;;;;;;;6.43;3.17;;;15.90;97.80;;;;;;5080496;28;20020;-42
2023/05/30 10:08:48;;;;;;;10.07;3.53;;;16.00;97.70;;;;;;5079537;28;20030;-42
2023/05/30 10:11:17;;;;;;;;;;;16.00;97.70;;;;;;5081100;28;20099;-42
2023/05/30 10:13:42;;;;;;;10.95;3.63;;;16.00;97.70;;;;;;5080800;28;19908;-42
2023/05/30 10:16:12;;;;;;;7.50;3.28;;;16.10;97.60;;;;;;5079450;28;20071;-42
2023/05/30 10:18:47;;;;;;;5.25;2.63;;;16.10;97.60;;;;;;5080446;28;20060;-42
2023/05/30 10:21:14;;;;;;;6.90;3.20;;;16.20;97.60;;;;;;5079761;28;20760;-41
2023/05/30 10:23:41;;;;;;;6.65;3.03;;;16.20;97.50;;;;;;5079946;28;20094;-43
2023/05/30 10:26:10;;;;;;;7.68;3.38;;;16.30;97.50;;;;;;5080915;28;20433;-42
2023/05/30 10:28:38;;;;;;;6.70;2.92;;;16.30;97.50;;;;;;5079252;28;20430;-42
2023/05/30 10:31:04;;;;;;;6.80;3.10;;;16.30;97.50;;;;;;5080501;28;20024;-42
2023/05/30 10:33:36;;;;;;;8.82;3.17;;;16.40;97.40;;;;;;5080037;28;20032;-42
2023/05/30 10:36:05;;;;;;;8.82;3.45;;;16.50;97.20;;;;;;5080690;28;20391;-41
2023/05/30 10:38:38;;;;;;;5.72;3.03;;;16.50;96.80;;;;;;5079223;28;20492;-43
2023/05/30 10:41:16;;;;;;;5.95;3.35;;;16.60;96.90;;;;;;5080473;28;20577;-41
2023/05/30 10:43:58;;;;;;;7.18;3.00;;;16.60;96.90;;;;;;5078971;28;20047;-43
2023/05/30 10:46:47;;;;;;;9.57;3.67;;;16.70;96.70;;;;;;5079830;28;20020;-42
2023/05/30 10:49:23;;;;;;;6.20;2.95;;;16.70;96.30;;;;;;5077542;28;20558;-41
2023/05/30 10:52:01;;;;;;;9.27;4.32;;;16.80;96.40;;;;;;5083064;28;20103;-43
2023/05/30 10:54:33;;;;;;;5.65;3.35;;;16.80;96.10;;;;;;5083927;28;20112;-41
2023/05/30 10:57:00;;;;;;;6.30;2.77;;;16.90;96.10;;;;;;5083687;28;20051;-42
2023/05/30 10:59:26;;;;;;;5.78;2.88;;;17.00;96.10;;;;;;5083599;28;20060;-42
2023/05/30 11:02:07;;;;;;;5.78;2.60;;;17.10;95.90;;;;;;5084714;28;20158;-42
2023/05/30 11:04:38;;;;;;;7.85;3.10;;;17.10;95.60;;;;;;5083531;28;20454;-43
2023/05/30 11:07:05;;;;;;;9.05;4.13;;;17.10;95.40;;;;;;5084791;28;20028;-42
2023/05/30 11:09:31;;;;;;;7.60;3.28;;;17.20;95.30;;;;;;5082782;28;20035;-42
2023/05/30 11:11:59;;;;;;;7.03;3.40;;;17.20;95.40;;;;;;5083541;28;20050;-42
2023/05/30 11:14:30;;;;;;;4.60;2.80;;;17.30;95.40;;;;;;5082884;28;20042;-40
2023/05/30 11:17:00;;;;;;;7.70;3.05;;;17.30;95.40;;;;;;5084380;28;20036;-42
2023/05/30 11:19:37;;;;;;;5.60;3.00;;;17.30;95.20;;;;;;5082462;28;20040;-42
2023/05/30 11:22:09;;;;;;;9.18;4.10;;;17.40;95.20;;;;;;5084363;28;20024;-42
2023/05/30 11:27:23;;;;;;;4.97;2.97;;;17.40;94.60;;;;;;5068471;28;20128;-41
2023/05/30 11:29:57;;;;;;;5.10;3.10;;;17.50;94.30;;;;;;5083743;28;20032;-42
2023/05/30 11:32:28;;;;;;;5.90;2.80;;;17.50;94.20;;;;;;5082899;28;20017;-39
2023/05/30 11:34:57;;;;;;;5.80;3.08;;;17.60;94.30;;;;;;5083973;28;20375;-43
2023/05/30 11:37:24;;;;;;;7.20;3.10;;;17.60;94.10;;;;;;5063260;28;20698;-39
2023/05/30 11:39:55;;;;;;;4.55;2.90;;;17.60;94.10;;;;;;5077877;28;20024;-44
2023/05/30 11:42:21;;;;;;;3.42;2.50;;;17.60;94.00;;;;;;5083149;28;20024;-41
2023/05/30 11:44:47;;;;;;;10.02;3.75;;;17.60;93.90;;;;;;5083071;28;20062;-44
2023/05/30 11:47:14;;;;;;;7.25;3.60;;;17.70;93.70;;;;;;5082986;28;20028;-40
2023/05/30 11:49:41;;;;;;;6.30;3.15;;;17.70;93.40;;;;;;5082712;28;20024;-41
2023/05/30 11:52:07;;;;;;;4.30;2.88;;;17.70;93.50;;;;;;5083606;28;20077;-40
2023/05/30 11:54:33;;;;;;;6.60;3.33;;;17.80;93.50;;;;;;5082122;28;20032;-42
2023/05/30 11:57:00;;;;;;;4.38;2.67;;;17.90;93.30;;;;;;5083328;28;20052;-39
2023/05/30 11:59:26;;;;;;;4.47;2.67;;;17.90;93.20;;;;;;5082331;28;20016;-42
2023/05/30 12:01:53;;;;;;;5.90;3.00;;;18.00;93.10;;;;;;5082013;28;20032;-40
2023/05/30 12:04:26;;;;;;;7.60;3.63;;;18.00;92.90;;;;;;5082686;28;20012;-42
2023/05/30 12:06:56;;;;;;;8.48;3.15;;;18.00;92.40;;;;;;5083236;28;20059;-42
2023/05/30 12:09:21;;;;;;;7.38;3.00;;;18.10;92.10;;;;;;5082912;28;20032;-42
2023/05/30 12:11:58;;;;;;;6.63;3.00;;;18.10;91.60;;;;;;5082465;28;20142;-39
2023/05/30 12:14:47;;;;;;;3.95;2.40;;;18.20;91.80;;;;;;5081871;28;20132;-42
2023/05/30 12:17:21;;;;;;;6.82;3.38;;;18.30;92.00;;;;;;5081422;28;20063;-41
2023/05/30 12:19:56;;;;;;;6.03;3.20;;;18.30;91.60;;;;;;5079182;28;20042;-42
2023/05/30 12:22:30;;;;;;;6.65;3.45;;;18.30;91.40;;;;;;5082403;28;20076;-40
2023/05/30 12:25:03;;;;;;;5.40;3.00;;;18.30;91.40;;;;;;5083091;28;20036;-43
2023/05/30 12:27:31;;;;;;;5.20;2.65;;;18.40;91.70;;;;;;5081908;28;20024;-43
2023/05/30 12:30:09;;;;;;;6.80;3.00;;;18.40;91.90;;;;;;5082333;28;20065;-42
2023/05/30 12:32:35;;;;;;;3.35;2.20;;;18.40;91.80;;;;;;5079645;28;20036;-42
2023/05/30 12:35:00;;;;;;;8.30;3.33;;;18.40;92.00;;;;;;5082105;28;20039;-43
2023/05/30 12:37:26;;;;;;;5.07;2.97;;;18.50;91.90;;;;;;5080868;28;20024;-42
2023/05/30 12:39:59;;;;;;;5.63;3.30;;;18.50;91.60;;;;;;5082296;28;20245;-43
2023/05/30 12:42:32;;;;;;;5.45;3.08;;;18.40;91.70;;;;;;5080854;28;20082;-42
2023/05/30 12:45:00;;;;;;;3.80;3.03;;;18.40;91.60;;;;;;5082993;28;20020;-42
2023/05/30 12:47:26;;;;;;;4.15;2.67;;;18.40;91.80;;;;;;5081716;28;20032;-43
2023/05/30 12:49:53;;;;;;;3.38;2.70;;;18.40;91.90;;;;;;5081725;28;20217;-41
2023/05/30 12:52:20;;;;;;;4.47;2.92;;;18.40;92.10;;;;;;5081655;28;20020;-43